Gustavus, Alaska
Current Conditions -  °F | °C
As of 6:00 AM on Saturday 22 Nov 2014 (Local Time) from PAGS Reporting Station
Overcast Overcast  
Wind Chill:   Ceiling: 3400
Heat Index:   Visibility: 10mi
Dew Point:   Wind: 5mph
Humidity: 93%   Direction: 160°SSE
Pressure: 29.26"   Gusts: NA
Location:  58.41°N, 135.74°W
Report Text: PAGS 221500Z AUTO 16004KT 10SM BKN034 OVC044 04/03 A2926 RMK VIA PHONE
Loading
Personal Weather Stations






























Interactive Weather Map New forecast layout! Learn more

10-Day Weather Forecast

Advertisements
Track Severe Weather on mobile